4XDAG LLHZ-LLHZ
Flight info
| Callsign | 4XDAG |
|---|---|
| Flight time | 0h 32m |
| Altitude | 6000 |
| Route | LLHZ BENQO1 NAT J15 RAPIV J15 NAT IFR/VFR SHARO DEROR BAZRA LLHZ |
| Aircraft | P28R/L-IFR/5000 |
Departure
| Time | 2026-04-29 19:30 |
|---|---|
| Airport | Herzliya Airport (LLHZ) |
Arrival
| Time | 2026-04-29 20:03 |
|---|---|
| Airport | Herzliya Airport (LLHZ) |
| Time | Latitude | Longitude | Altitude | Speed | Heading |
|---|---|---|---|---|---|
| 2026-04-29 19:18 | 32.17927 | 34.83619 | 134 ft | 0 kts | 20° |
| 2026-04-29 19:26 | 32.17939 | 34.83635 | 119 ft | 8 kts | 85° |
| 2026-04-29 19:27 | 32.17916 | 34.83722 | 122 ft | 13 kts | 109° |
| 2026-04-29 19:27 | 32.17885 | 34.83825 | 125 ft | 11 kts | 108° |
| 2026-04-29 19:27 | 32.17881 | 34.83841 | 125 ft | 0 kts | 100° |
| 2026-04-29 19:28 | 32.17902 | 34.83863 | 129 ft | 8 kts | 353° |
| 2026-04-29 19:28 | 32.17914 | 34.83852 | 128 ft | 0 kts | 288° |
| 2026-04-29 19:29 | 32.17966 | 34.83674 | 121 ft | 51 kts | 289° |
| 2026-04-29 19:29 | 32.18125 | 34.83124 | 146 ft | 81 kts | 285° |
| 2026-04-29 19:29 | 32.18461 | 34.82655 | 293 ft | 80 kts | 352° |
| 2026-04-29 19:29 | 32.18989 | 34.82930 | 444 ft | 86 kts | 25° |
| 2026-04-29 19:30 | 32.19531 | 34.83251 | 635 ft | 88 kts | 23° |
| 2026-04-29 19:30 | 32.20089 | 34.83543 | 815 ft | 87 kts | 20° |
| 2026-04-29 19:30 | 32.20673 | 34.83454 | 986 ft | 90 kts | 327° |
| 2026-04-29 19:30 | 32.21119 | 34.82953 | 1185 ft | 93 kts | 302° |
| 2026-04-29 19:31 | 32.21476 | 34.82223 | 1187 ft | 113 kts | 293° |
| 2026-04-29 19:31 | 32.21809 | 34.81357 | 1247 ft | 118 kts | 290° |
| 2026-04-29 19:31 | 32.22082 | 34.80393 | 1168 ft | 129 kts | 284° |
| 2026-04-29 19:31 | 32.22319 | 34.79393 | 1330 ft | 120 kts | 282° |
| 2026-04-29 19:32 | 32.22492 | 34.78483 | 1542 ft | 110 kts | 282° |
| 2026-04-29 19:32 | 32.22675 | 34.77633 | 1719 ft | 105 kts | 286° |
| 2026-04-29 19:32 | 32.22834 | 34.76806 | 1878 ft | 103 kts | 282° |
| 2026-04-29 19:32 | 32.23047 | 34.75995 | 1956 ft | 107 kts | 294° |
| 2026-04-29 19:33 | 32.23628 | 34.75452 | 1997 ft | 113 kts | 340° |
| 2026-04-29 19:33 | 32.24378 | 34.75139 | 2022 ft | 118 kts | 337° |
| 2026-04-29 19:33 | 32.25161 | 34.74820 | 2042 ft | 120 kts | 338° |
| 2026-04-29 19:33 | 32.25965 | 34.74450 | 1969 ft | 126 kts | 336° |
| 2026-04-29 19:34 | 32.26747 | 34.74034 | 2052 ft | 122 kts | 334° |
| 2026-04-29 19:34 | 32.27515 | 34.73604 | 2052 ft | 126 kts | 332° |
| 2026-04-29 19:34 | 32.28316 | 34.73136 | 2019 ft | 130 kts | 332° |
| 2026-04-29 19:34 | 32.29133 | 34.72655 | 2001 ft | 133 kts | 332° |
| 2026-04-29 19:35 | 32.29973 | 34.72186 | 1994 ft | 132 kts | 334° |
| 2026-04-29 19:35 | 32.30795 | 34.71781 | 2055 ft | 127 kts | 337° |
| 2026-04-29 19:35 | 32.31625 | 34.71342 | 2018 ft | 132 kts | 334° |
| 2026-04-29 19:35 | 32.32465 | 34.70902 | 2022 ft | 132 kts | 336° |
| 2026-04-29 19:36 | 32.33300 | 34.70463 | 2038 ft | 131 kts | 335° |
| 2026-04-29 19:36 | 32.34122 | 34.70022 | 2031 ft | 131 kts | 335° |
| 2026-04-29 19:36 | 32.34957 | 34.69594 | 2027 ft | 131 kts | 335° |
| 2026-04-29 19:36 | 32.35801 | 34.69167 | 2009 ft | 132 kts | 335° |
| 2026-04-29 19:37 | 32.36646 | 34.68748 | 2027 ft | 131 kts | 336° |
| 2026-04-29 19:37 | 32.37215 | 34.68481 | 2060 ft | 130 kts | 337° |
| 2026-04-29 19:37 | 32.38325 | 34.67918 | 2069 ft | 129 kts | 334° |
| 2026-04-29 19:37 | 32.39161 | 34.67574 | 2125 ft | 129 kts | 349° |
| 2026-04-29 19:38 | 32.40042 | 34.67736 | 2200 ft | 129 kts | 23° |
| 2026-04-29 19:38 | 32.40659 | 34.68456 | 2336 ft | 123 kts | 63° |
| 2026-04-29 19:38 | 32.40779 | 34.69405 | 2536 ft | 114 kts | 92° |
| 2026-04-29 19:38 | 32.40676 | 34.70318 | 2684 ft | 113 kts | 101° |
| 2026-04-29 19:39 | 32.40496 | 34.71219 | 2811 ft | 113 kts | 103° |
| 2026-04-29 19:39 | 32.40295 | 34.72108 | 2975 ft | 110 kts | 103° |
| 2026-04-29 19:39 | 32.40104 | 34.72983 | 3130 ft | 110 kts | 101° |
| 2026-04-29 19:39 | 32.39911 | 34.73871 | 3247 ft | 112 kts | 102° |
| 2026-04-29 19:40 | 32.39697 | 34.74755 | 3395 ft | 111 kts | 103° |
| 2026-04-29 19:40 | 32.39474 | 34.75632 | 3538 ft | 111 kts | 104° |
| 2026-04-29 19:40 | 32.39244 | 34.76513 | 3655 ft | 114 kts | 109° |
| 2026-04-29 19:40 | 32.38998 | 34.77391 | 3811 ft | 113 kts | 109° |
| 2026-04-29 19:41 | 32.38766 | 34.78271 | 3979 ft | 110 kts | 108° |
| 2026-04-29 19:41 | 32.38542 | 34.79118 | 4163 ft | 106 kts | 107° |
| 2026-04-29 19:41 | 32.38314 | 34.79919 | 4360 ft | 101 kts | 106° |
| 2026-04-29 19:41 | 32.38091 | 34.80717 | 4537 ft | 103 kts | 107° |
| 2026-04-29 19:42 | 32.37850 | 34.81520 | 4722 ft | 104 kts | 109° |
| 2026-04-29 19:42 | 32.37682 | 34.82047 | 4851 ft | 102 kts | 109° |
| 2026-04-29 19:42 | 32.37365 | 34.83081 | 5136 ft | 97 kts | 107° |
| 2026-04-29 19:42 | 32.37151 | 34.83841 | 5303 ft | 99 kts | 105° |
| 2026-04-29 19:43 | 32.36943 | 34.84613 | 5472 ft | 99 kts | 105° |
| 2026-04-29 19:43 | 32.36724 | 34.85396 | 5637 ft | 99 kts | 110° |
| 2026-04-29 19:43 | 32.36471 | 34.86161 | 5801 ft | 102 kts | 109° |
| 2026-04-29 19:43 | 32.36226 | 34.86947 | 5959 ft | 104 kts | 109° |
| 2026-04-29 19:44 | 32.35970 | 34.87785 | 6020 ft | 114 kts | 111° |
| 2026-04-29 19:44 | 32.35672 | 34.88711 | 6008 ft | 124 kts | 113° |
| 2026-04-29 19:44 | 32.35344 | 34.89682 | 6011 ft | 129 kts | 114° |
| 2026-04-29 19:44 | 32.34983 | 34.90670 | 6039 ft | 132 kts | 116° |
| 2026-04-29 19:45 | 32.34654 | 34.91672 | 6111 ft | 131 kts | 110° |
| 2026-04-29 19:45 | 32.34360 | 34.92736 | 6052 ft | 138 kts | 109° |
| 2026-04-29 19:45 | 32.34110 | 34.93836 | 6041 ft | 140 kts | 103° |
| 2026-04-29 19:45 | 32.33994 | 34.94963 | 6056 ft | 137 kts | 85° |
| 2026-04-29 19:46 | 32.34285 | 34.96030 | 6028 ft | 137 kts | 60° |
| 2026-04-29 19:46 | 32.34950 | 34.96769 | 6032 ft | 132 kts | 26° |
| 2026-04-29 19:46 | 32.35844 | 34.96907 | 5986 ft | 131 kts | 354° |
| 2026-04-29 19:46 | 32.36713 | 34.96721 | 6050 ft | 125 kts | 344° |
| 2026-04-29 19:47 | 32.37579 | 34.96433 | 5990 ft | 132 kts | 345° |
| 2026-04-29 19:47 | 32.38471 | 34.96216 | 6017 ft | 131 kts | 347° |
| 2026-04-29 19:47 | 32.39359 | 34.95993 | 6023 ft | 129 kts | 347° |
| 2026-04-29 19:47 | 32.40234 | 34.95789 | 6020 ft | 128 kts | 348° |
| 2026-04-29 19:48 | 32.41121 | 34.95609 | 6003 ft | 131 kts | 350° |
| 2026-04-29 19:48 | 32.41721 | 34.95520 | 6032 ft | 130 kts | 353° |
| 2026-04-29 19:48 | 32.42940 | 34.95421 | 6031 ft | 131 kts | 355° |
| 2026-04-29 19:48 | 32.43863 | 34.95496 | 5992 ft | 136 kts | 13° |
| 2026-04-29 19:49 | 32.44682 | 34.96023 | 6010 ft | 136 kts | 40° |
| 2026-04-29 19:49 | 32.44914 | 34.97086 | 5934 ft | 145 kts | 105° |
| 2026-04-29 19:49 | 32.44182 | 34.97796 | 5993 ft | 136 kts | 171° |
| 2026-04-29 19:49 | 32.43266 | 34.97671 | 5977 ft | 135 kts | 197° |
| 2026-04-29 19:50 | 32.42394 | 34.97283 | 5991 ft | 132 kts | 209° |
| 2026-04-29 19:50 | 32.41591 | 34.96755 | 5994 ft | 132 kts | 216° |
| 2026-04-29 19:50 | 32.40841 | 34.96126 | 5997 ft | 132 kts | 217° |
| 2026-04-29 19:50 | 32.39945 | 34.95859 | 5981 ft | 138 kts | 187° |
| 2026-04-29 19:51 | 32.38990 | 34.95962 | 5981 ft | 139 kts | 176° |
| 2026-04-29 19:51 | 32.38026 | 34.96098 | 6005 ft | 138 kts | 178° |
| 2026-04-29 19:51 | 32.37078 | 34.96242 | 6005 ft | 139 kts | 176° |
| 2026-04-29 19:51 | 32.36122 | 34.96400 | 6035 ft | 139 kts | 173° |
| 2026-04-29 19:52 | 32.35152 | 34.96568 | 6011 ft | 140 kts | 176° |
| 2026-04-29 19:52 | 32.34199 | 34.96718 | 6043 ft | 138 kts | 173° |
| 2026-04-29 19:52 | 32.33251 | 34.96922 | 6022 ft | 140 kts | 179° |
| 2026-04-29 19:52 | 32.32323 | 34.96599 | 5835 ft | 143 kts | 219° |
| 2026-04-29 19:53 | 32.31857 | 34.95594 | 5627 ft | 144 kts | 266° |
| 2026-04-29 19:53 | 32.32150 | 34.94481 | 5413 ft | 146 kts | 306° |
| 2026-04-29 19:53 | 32.32973 | 34.93798 | 5191 ft | 147 kts | 336° |
| 2026-04-29 19:53 | 32.33928 | 34.93347 | 4964 ft | 149 kts | 339° |
| 2026-04-29 19:54 | 32.35895 | 34.92552 | 4424 ft | 151 kts | 340° |
| 2026-04-29 19:54 | 32.36904 | 34.92203 | 4152 ft | 152 kts | 347° |
| 2026-04-29 19:54 | 32.37897 | 34.92497 | 3880 ft | 157 kts | 34° |
| 2026-04-29 19:55 | 32.38335 | 34.93695 | 3569 ft | 166 kts | 86° |
| 2026-04-29 19:55 | 32.37928 | 34.94934 | 3354 ft | 164 kts | 125° |
| 2026-04-29 19:55 | 32.37157 | 34.95906 | 3129 ft | 161 kts | 141° |
| 2026-04-29 19:55 | 32.36140 | 34.96376 | 2986 ft | 156 kts | 176° |
| 2026-04-29 19:56 | 32.35088 | 34.96486 | 2873 ft | 152 kts | 180° |
| 2026-04-29 19:56 | 32.34091 | 34.96530 | 2990 ft | 140 kts | 181° |
| 2026-04-29 19:56 | 32.33188 | 34.96263 | 2914 ft | 134 kts | 224° |
| 2026-04-29 19:56 | 32.32875 | 34.95251 | 2663 ft | 143 kts | 267° |
| 2026-04-29 19:57 | 32.32862 | 34.94021 | 2274 ft | 153 kts | 272° |
| 2026-04-29 19:57 | 32.32898 | 34.93158 | 2057 ft | 154 kts | 275° |
| 2026-04-29 19:57 | 32.32861 | 34.91568 | 1986 ft | 140 kts | 261° |
| 2026-04-29 19:57 | 32.32370 | 34.90631 | 1941 ft | 135 kts | 222° |
| 2026-04-29 19:58 | 32.31821 | 34.90306 | 1943 ft | 132 kts | 201° |
| 2026-04-29 19:58 | 32.30931 | 34.90090 | 1962 ft | 129 kts | 192° |
| 2026-04-29 19:58 | 32.30050 | 34.89887 | 1995 ft | 128 kts | 195° |
| 2026-04-29 19:58 | 32.29190 | 34.89664 | 2018 ft | 128 kts | 192° |
| 2026-04-29 19:59 | 32.28299 | 34.89560 | 2037 ft | 128 kts | 188° |
| 2026-04-29 19:59 | 32.27412 | 34.89453 | 2010 ft | 130 kts | 187° |
| 2026-04-29 19:59 | 32.26517 | 34.89341 | 1990 ft | 129 kts | 189° |
| 2026-04-29 19:59 | 32.25637 | 34.89137 | 1982 ft | 128 kts | 194° |
| 2026-04-29 20:00 | 32.24780 | 34.88888 | 2019 ft | 127 kts | 196° |
| 2026-04-29 20:00 | 32.23915 | 34.88642 | 2017 ft | 129 kts | 194° |
| 2026-04-29 20:00 | 32.23027 | 34.88429 | 1920 ft | 135 kts | 195° |
| 2026-04-29 20:00 | 32.22152 | 34.87867 | 1540 ft | 146 kts | 218° |
| 2026-04-29 20:01 | 32.21362 | 34.87129 | 1292 ft | 143 kts | 219° |
| 2026-04-29 20:01 | 32.20655 | 34.86376 | 1136 ft | 129 kts | 220° |
| 2026-04-29 20:01 | 32.19922 | 34.85786 | 865 ft | 126 kts | 197° |
| 2026-04-29 20:01 | 32.19159 | 34.85560 | 810 ft | 101 kts | 195° |
| 2026-04-29 20:02 | 32.18513 | 34.85344 | 729 ft | 91 kts | 197° |
| 2026-04-29 20:02 | 32.17918 | 34.85147 | 535 ft | 93 kts | 202° |
| 2026-04-29 20:02 | 32.17717 | 34.84508 | 322 ft | 91 kts | 294° |
| 2026-04-29 20:02 | 32.17859 | 34.84050 | 205 ft | 89 kts | 290° |
| 2026-04-29 20:03 | 32.18081 | 34.83291 | 102 ft | 44 kts | 288° |
| 2026-04-29 20:03 | 32.18136 | 34.83081 | 98 ft | 14 kts | 265° |
| 2026-04-29 20:03 | 32.18105 | 34.83083 | 100 ft | 9 kts | 110° |
| 2026-04-29 20:03 | 32.18078 | 34.83178 | 102 ft | 16 kts | 113° |
| 2026-04-29 20:04 | 32.18035 | 34.83321 | 105 ft | 21 kts | 110° |
| 2026-04-29 20:04 | 32.17984 | 34.83492 | 109 ft | 19 kts | 111° |
| 2026-04-29 20:04 | 32.17948 | 34.83615 | 113 ft | 12 kts | 109° |
| 2026-04-29 20:04 | 32.17918 | 34.83643 | 115 ft | 3 kts | 156° |
| 2026-04-29 20:05 | 32.17915 | 34.83646 | 115 ft | 0 kts | 131° |